sensor_id;sensor_type;location;lat;lon;timestamp;P1;durP1;ratioP1;P2;durP2;ratioP2
43986;SDS011;29650;47.378;8.300;2022-12-18T00:02:14;24.13;;;12.40;;
43986;SDS011;29650;47.378;8.300;2022-12-18T00:04:41;34.28;;;12.95;;
43986;SDS011;29650;47.378;8.300;2022-12-18T00:07:09;29.13;;;11.95;;
43986;SDS011;29650;47.378;8.300;2022-12-18T00:09:36;25.37;;;13.17;;
43986;SDS011;29650;47.378;8.300;2022-12-18T00:12:03;26.23;;;12.05;;
43986;SDS011;29650;47.378;8.300;2022-12-18T00:14:31;28.25;;;13.27;;
43986;SDS011;29650;47.378;8.300;2022-12-18T00:16:58;23.63;;;11.25;;
43986;SDS011;29650;47.378;8.300;2022-12-18T00:19:25;22.58;;;12.30;;
43986;SDS011;29650;47.378;8.300;2022-12-18T00:21:53;22.90;;;12.38;;
43986;SDS011;29650;47.378;8.300;2022-12-18T00:24:21;24.13;;;12.35;;
43986;SDS011;29650;47.378;8.300;2022-12-18T00:26:48;25.80;;;11.60;;
43986;SDS011;29650;47.378;8.300;2022-12-18T00:29:15;28.35;;;12.88;;
43986;SDS011;29650;47.378;8.300;2022-12-18T00:31:42;29.38;;;13.02;;
43986;SDS011;29650;47.378;8.300;2022-12-18T00:34:10;24.85;;;12.13;;
43986;SDS011;29650;47.378;8.300;2022-12-18T00:36:38;31.20;;;14.15;;
43986;SDS011;29650;47.378;8.300;2022-12-18T00:39:06;25.15;;;12.68;;
43986;SDS011;29650;47.378;8.300;2022-12-18T00:41:34;24.92;;;12.55;;
43986;SDS011;29650;47.378;8.300;2022-12-18T00:44:19;21.52;;;11.38;;
43986;SDS011;29650;47.378;8.300;2022-12-18T00:46:46;33.47;;;12.68;;
43986;SDS011;29650;47.378;8.300;2022-12-18T00:49:14;23.08;;;11.23;;
43986;SDS011;29650;47.378;8.300;2022-12-18T00:51:42;21.83;;;11.68;;
43986;SDS011;29650;47.378;8.300;2022-12-18T00:54:10;25.50;;;12.63;;
43986;SDS011;29650;47.378;8.300;2022-12-18T00:56:38;25.02;;;12.85;;
43986;SDS011;29650;47.378;8.300;2022-12-18T00:59:05;25.45;;;11.57;;
43986;SDS011;29650;47.378;8.300;2022-12-18T01:01:32;26.58;;;12.02;;
43986;SDS011;29650;47.378;8.300;2022-12-18T01:03:59;27.80;;;12.68;;
43986;SDS011;29650;47.378;8.300;2022-12-18T01:06:27;29.55;;;12.82;;
43986;SDS011;29650;47.378;8.300;2022-12-18T01:08:54;30.40;;;13.20;;
43986;SDS011;29650;47.378;8.300;2022-12-18T01:11:21;26.08;;;13.23;;
43986;SDS011;29650;47.378;8.300;2022-12-18T01:13:50;29.67;;;12.70;;
43986;SDS011;29650;47.378;8.300;2022-12-18T01:16:18;31.08;;;13.63;;
43986;SDS011;29650;47.378;8.300;2022-12-18T01:18:45;28.50;;;12.05;;
43986;SDS011;29650;47.378;8.300;2022-12-18T01:21:12;26.65;;;14.02;;
43986;SDS011;29650;47.378;8.300;2022-12-18T01:23:41;32.15;;;13.63;;
43986;SDS011;29650;47.378;8.300;2022-12-18T01:26:12;28.55;;;14.02;;
43986;SDS011;29650;47.378;8.300;2022-12-18T01:28:41;25.80;;;12.90;;
43986;SDS011;29650;47.378;8.300;2022-12-18T01:31:11;28.40;;;13.02;;
43986;SDS011;29650;47.378;8.300;2022-12-18T01:33:39;25.35;;;12.27;;
43986;SDS011;29650;47.378;8.300;2022-12-18T01:36:06;28.52;;;13.18;;
43986;SDS011;29650;47.378;8.300;2022-12-18T01:38:35;30.23;;;11.77;;
43986;SDS011;29650;47.378;8.300;2022-12-18T01:41:02;35.50;;;13.02;;
43986;SDS011;29650;47.378;8.300;2022-12-18T01:43:42;27.50;;;12.75;;
43986;SDS011;29650;47.378;8.300;2022-12-18T01:46:15;27.02;;;11.70;;
43986;SDS011;29650;47.378;8.300;2022-12-18T01:51:10;16.33;;;10.07;;
43986;SDS011;29650;47.378;8.300;2022-12-18T01:53:39;29.75;;;12.98;;
43986;SDS011;29650;47.378;8.300;2022-12-18T01:56:08;31.85;;;12.32;;
43986;SDS011;29650;47.378;8.300;2022-12-18T01:58:40;33.20;;;13.27;;
43986;SDS011;29650;47.378;8.300;2022-12-18T02:01:11;31.08;;;12.18;;
43986;SDS011;29650;47.378;8.300;2022-12-18T02:03:41;33.75;;;13.45;;
43986;SDS011;29650;47.378;8.300;2022-12-18T02:06:10;31.85;;;13.90;;
43986;SDS011;29650;47.378;8.300;2022-12-18T02:08:44;34.42;;;14.10;;
43986;SDS011;29650;47.378;8.300;2022-12-18T02:11:21;30.48;;;14.32;;
43986;SDS011;29650;47.378;8.300;2022-12-18T02:13:59;29.25;;;14.13;;
43986;SDS011;29650;47.378;8.300;2022-12-18T02:16:35;31.67;;;15.07;;
43986;SDS011;29650;47.378;8.300;2022-12-18T02:19:12;28.67;;;12.23;;
43986;SDS011;29650;47.378;8.300;2022-12-18T02:21:52;26.25;;;12.60;;
43986;SDS011;29650;47.378;8.300;2022-12-18T02:24:27;34.78;;;14.10;;
43986;SDS011;29650;47.378;8.300;2022-12-18T02:27:03;26.27;;;13.45;;
43986;SDS011;29650;47.378;8.300;2022-12-18T02:29:33;29.45;;;12.88;;
43986;SDS011;29650;47.378;8.300;2022-12-18T02:32:06;27.85;;;13.18;;
43986;SDS011;29650;47.378;8.300;2022-12-18T02:34:37;30.83;;;14.43;;
43986;SDS011;29650;47.378;8.300;2022-12-18T02:39:35;37.42;;;14.85;;
43986;SDS011;29650;47.378;8.300;2022-12-18T02:42:06;27.80;;;13.02;;
43986;SDS011;29650;47.378;8.300;2022-12-18T02:44:33;31.23;;;13.45;;
43986;SDS011;29650;47.378;8.300;2022-12-18T02:47:01;33.50;;;13.70;;
43986;SDS011;29650;47.378;8.300;2022-12-18T02:49:31;31.42;;;12.90;;
43986;SDS011;29650;47.378;8.300;2022-12-18T02:52:05;25.20;;;12.68;;
43986;SDS011;29650;47.378;8.300;2022-12-18T02:54:49;26.60;;;11.88;;
43986;SDS011;29650;47.378;8.300;2022-12-18T02:57:32;33.80;;;14.45;;
43986;SDS011;29650;47.378;8.300;2022-12-18T03:00:04;30.58;;;12.60;;
43986;SDS011;29650;47.378;8.300;2022-12-18T03:02:36;27.38;;;12.13;;
43986;SDS011;29650;47.378;8.300;2022-12-18T03:05:08;30.00;;;13.88;;
43986;SDS011;29650;47.378;8.300;2022-12-18T03:07:41;31.27;;;13.73;;
43986;SDS011;29650;47.378;8.300;2022-12-18T03:10:12;30.27;;;14.75;;
43986;SDS011;29650;47.378;8.300;2022-12-18T03:12:44;30.20;;;14.25;;
43986;SDS011;29650;47.378;8.300;2022-12-18T03:15:19;31.95;;;13.95;;
43986;SDS011;29650;47.378;8.300;2022-12-18T03:17:51;30.50;;;14.68;;
43986;SDS011;29650;47.378;8.300;2022-12-18T03:20:22;28.88;;;12.93;;
43986;SDS011;29650;47.378;8.300;2022-12-18T03:22:51;29.13;;;12.57;;
43986;SDS011;29650;47.378;8.300;2022-12-18T03:25:22;27.15;;;13.30;;
43986;SDS011;29650;47.378;8.300;2022-12-18T03:27:53;30.40;;;13.57;;
43986;SDS011;29650;47.378;8.300;2022-12-18T03:30:24;31.88;;;13.40;;
43986;SDS011;29650;47.378;8.300;2022-12-18T03:32:56;34.42;;;14.25;;
43986;SDS011;29650;47.378;8.300;2022-12-18T03:35:29;31.17;;;14.00;;
43986;SDS011;29650;47.378;8.300;2022-12-18T03:38:01;27.50;;;11.90;;
43986;SDS011;29650;47.378;8.300;2022-12-18T03:40:29;29.77;;;13.52;;
43986;SDS011;29650;47.378;8.300;2022-12-18T03:43:03;29.30;;;12.95;;
43986;SDS011;29650;47.378;8.300;2022-12-18T03:45:36;31.88;;;12.85;;
43986;SDS011;29650;47.378;8.300;2022-12-18T03:48:08;38.90;;;12.82;;
43986;SDS011;29650;47.378;8.300;2022-12-18T03:50:44;29.13;;;11.25;;
43986;SDS011;29650;47.378;8.300;2022-12-18T03:53:16;33.72;;;15.25;;
43986;SDS011;29650;47.378;8.300;2022-12-18T03:55:49;29.55;;;12.25;;
43986;SDS011;29650;47.378;8.300;2022-12-18T03:58:19;28.08;;;12.45;;
43986;SDS011;29650;47.378;8.300;2022-12-18T04:00:49;30.80;;;12.55;;
43986;SDS011;29650;47.378;8.300;2022-12-18T04:03:19;36.10;;;14.82;;
43986;SDS011;29650;47.378;8.300;2022-12-18T04:05:47;23.33;;;10.97;;
43986;SDS011;29650;47.378;8.300;2022-12-18T04:08:16;31.77;;;11.88;;
43986;SDS011;29650;47.378;8.300;2022-12-18T04:10:44;30.35;;;12.60;;
43986;SDS011;29650;47.378;8.300;2022-12-18T04:13:11;26.98;;;12.10;;
43986;SDS011;29650;47.378;8.300;2022-12-18T04:15:39;29.60;;;13.20;;
43986;SDS011;29650;47.378;8.300;2022-12-18T04:18:07;29.92;;;14.98;;
43986;SDS011;29650;47.378;8.300;2022-12-18T04:20:34;38.50;;;15.10;;
43986;SDS011;29650;47.378;8.300;2022-12-18T04:23:01;27.60;;;12.95;;
43986;SDS011;29650;47.378;8.300;2022-12-18T04:25:28;30.77;;;13.10;;
43986;SDS011;29650;47.378;8.300;2022-12-18T04:27:55;33.85;;;14.48;;
43986;SDS011;29650;47.378;8.300;2022-12-18T04:30:22;34.60;;;13.65;;
43986;SDS011;29650;47.378;8.300;2022-12-18T04:32:50;28.38;;;13.23;;
43986;SDS011;29650;47.378;8.300;2022-12-18T04:35:17;33.00;;;14.40;;
43986;SDS011;29650;47.378;8.300;2022-12-18T04:37:44;30.52;;;12.98;;
43986;SDS011;29650;47.378;8.300;2022-12-18T04:40:11;25.92;;;12.18;;
43986;SDS011;29650;47.378;8.300;2022-12-18T04:42:38;30.30;;;12.77;;
43986;SDS011;29650;47.378;8.300;2022-12-18T04:45:06;28.63;;;10.98;;
43986;SDS011;29650;47.378;8.300;2022-12-18T04:47:34;26.85;;;11.75;;
43986;SDS011;29650;47.378;8.300;2022-12-18T04:50:03;31.23;;;12.77;;
43986;SDS011;29650;47.378;8.300;2022-12-18T04:52:30;25.90;;;11.88;;
43986;SDS011;29650;47.378;8.300;2022-12-18T04:54:57;30.40;;;12.40;;
43986;SDS011;29650;47.378;8.300;2022-12-18T04:57:24;26.15;;;11.45;;
43986;SDS011;29650;47.378;8.300;2022-12-18T04:59:51;37.30;;;14.80;;
43986;SDS011;29650;47.378;8.300;2022-12-18T05:02:18;27.85;;;13.30;;
43986;SDS011;29650;47.378;8.300;2022-12-18T05:04:45;29.02;;;11.32;;
43986;SDS011;29650;47.378;8.300;2022-12-18T05:07:13;33.67;;;14.55;;
43986;SDS011;29650;47.378;8.300;2022-12-18T05:09:40;24.17;;;10.82;;
43986;SDS011;29650;47.378;8.300;2022-12-18T05:12:07;32.08;;;10.73;;
43986;SDS011;29650;47.378;8.300;2022-12-18T05:14:34;30.75;;;13.02;;
43986;SDS011;29650;47.378;8.300;2022-12-18T05:17:01;29.17;;;11.23;;
43986;SDS011;29650;47.378;8.300;2022-12-18T05:19:28;32.00;;;11.63;;
43986;SDS011;29650;47.378;8.300;2022-12-18T05:21:55;25.25;;;8.95;;
43986;SDS011;29650;47.378;8.300;2022-12-18T05:24:23;24.30;;;10.43;;
43986;SDS011;29650;47.378;8.300;2022-12-18T05:26:50;27.40;;;10.57;;
43986;SDS011;29650;47.378;8.300;2022-12-18T05:29:17;28.33;;;10.23;;
43986;SDS011;29650;47.378;8.300;2022-12-18T05:31:44;25.08;;;10.10;;
43986;SDS011;29650;47.378;8.300;2022-12-18T05:34:11;29.85;;;9.65;;
43986;SDS011;29650;47.378;8.300;2022-12-18T05:36:38;27.58;;;10.90;;
43986;SDS011;29650;47.378;8.300;2022-12-18T05:39:05;29.60;;;11.77;;
43986;SDS011;29650;47.378;8.300;2022-12-18T05:41:34;23.23;;;9.48;;
43986;SDS011;29650;47.378;8.300;2022-12-18T05:44:01;34.30;;;11.40;;
43986;SDS011;29650;47.378;8.300;2022-12-18T05:46:28;36.88;;;13.45;;
43986;SDS011;29650;47.378;8.300;2022-12-18T05:48:58;29.40;;;11.68;;
43986;SDS011;29650;47.378;8.300;2022-12-18T05:51:26;31.65;;;12.43;;
43986;SDS011;29650;47.378;8.300;2022-12-18T05:53:53;25.00;;;11.20;;
43986;SDS011;29650;47.378;8.300;2022-12-18T05:56:20;24.83;;;10.20;;
43986;SDS011;29650;47.378;8.300;2022-12-18T05:58:51;25.63;;;10.07;;
43986;SDS011;29650;47.378;8.300;2022-12-18T06:01:20;30.83;;;10.57;;
43986;SDS011;29650;47.378;8.300;2022-12-18T06:03:48;27.35;;;10.77;;
43986;SDS011;29650;47.378;8.300;2022-12-18T06:06:15;25.70;;;11.50;;
43986;SDS011;29650;47.378;8.300;2022-12-18T06:08:44;25.13;;;11.30;;
43986;SDS011;29650;47.378;8.300;2022-12-18T06:11:11;24.85;;;9.80;;
43986;SDS011;29650;47.378;8.300;2022-12-18T06:13:38;25.45;;;10.23;;
43986;SDS011;29650;47.378;8.300;2022-12-18T06:16:07;27.40;;;9.60;;
43986;SDS011;29650;47.378;8.300;2022-12-18T06:18:37;24.58;;;11.43;;
43986;SDS011;29650;47.378;8.300;2022-12-18T06:21:04;27.30;;;9.30;;
43986;SDS011;29650;47.378;8.300;2022-12-18T06:23:31;27.63;;;9.45;;
43986;SDS011;29650;47.378;8.300;2022-12-18T06:25:58;22.90;;;9.00;;
43986;SDS011;29650;47.378;8.300;2022-12-18T06:28:30;23.88;;;11.05;;
43986;SDS011;29650;47.378;8.300;2022-12-18T06:30:57;28.10;;;9.18;;
43986;SDS011;29650;47.378;8.300;2022-12-18T06:33:26;17.88;;;9.38;;
43986;SDS011;29650;47.378;8.300;2022-12-18T06:35:54;24.58;;;9.75;;
43986;SDS011;29650;47.378;8.300;2022-12-18T06:38:25;26.75;;;10.18;;
43986;SDS011;29650;47.378;8.300;2022-12-18T06:40:52;24.60;;;10.23;;
43986;SDS011;29650;47.378;8.300;2022-12-18T06:43:19;25.38;;;11.13;;
43986;SDS011;29650;47.378;8.300;2022-12-18T06:45:46;24.52;;;9.55;;
43986;SDS011;29650;47.378;8.300;2022-12-18T06:48:17;24.60;;;10.27;;
43986;SDS011;29650;47.378;8.300;2022-12-18T06:50:46;28.50;;;11.65;;
43986;SDS011;29650;47.378;8.300;2022-12-18T06:53:13;26.48;;;10.98;;
43986;SDS011;29650;47.378;8.300;2022-12-18T06:55:40;22.48;;;9.65;;
43986;SDS011;29650;47.378;8.300;2022-12-18T06:58:07;24.63;;;8.73;;
43986;SDS011;29650;47.378;8.300;2022-12-18T07:00:34;23.42;;;8.82;;
43986;SDS011;29650;47.378;8.300;2022-12-18T07:03:01;29.30;;;11.77;;
43986;SDS011;29650;47.378;8.300;2022-12-18T07:05:28;24.70;;;9.82;;
43986;SDS011;29650;47.378;8.300;2022-12-18T07:07:57;25.08;;;10.50;;
43986;SDS011;29650;47.378;8.300;2022-12-18T07:10:24;23.23;;;10.63;;
43986;SDS011;29650;47.378;8.300;2022-12-18T07:12:51;22.10;;;10.50;;
43986;SDS011;29650;47.378;8.300;2022-12-18T07:15:18;22.75;;;7.97;;
43986;SDS011;29650;47.378;8.300;2022-12-18T07:17:45;23.13;;;10.07;;
43986;SDS011;29650;47.378;8.300;2022-12-18T07:20:12;23.58;;;10.52;;
43986;SDS011;29650;47.378;8.300;2022-12-18T07:22:39;24.33;;;10.50;;
43986;SDS011;29650;47.378;8.300;2022-12-18T07:25:07;31.17;;;10.45;;
43986;SDS011;29650;47.378;8.300;2022-12-18T07:27:34;26.80;;;10.00;;
43986;SDS011;29650;47.378;8.300;2022-12-18T07:30:01;25.90;;;11.13;;
43986;SDS011;29650;47.378;8.300;2022-12-18T07:32:29;28.98;;;10.65;;
43986;SDS011;29650;47.378;8.300;2022-12-18T07:34:56;26.35;;;10.23;;
43986;SDS011;29650;47.378;8.300;2022-12-18T07:37:23;28.38;;;9.60;;
43986;SDS011;29650;47.378;8.300;2022-12-18T07:39:50;25.77;;;10.18;;
43986;SDS011;29650;47.378;8.300;2022-12-18T07:42:18;27.95;;;9.88;;
43986;SDS011;29650;47.378;8.300;2022-12-18T07:44:57;25.35;;;10.90;;
43986;SDS011;29650;47.378;8.300;2022-12-18T07:47:24;24.88;;;10.70;;
43986;SDS011;29650;47.378;8.300;2022-12-18T07:49:51;22.88;;;10.45;;
43986;SDS011;29650;47.378;8.300;2022-12-18T07:52:18;22.88;;;7.97;;
43986;SDS011;29650;47.378;8.300;2022-12-18T07:54:45;23.52;;;9.27;;
43986;SDS011;29650;47.378;8.300;2022-12-18T07:57:14;30.10;;;11.23;;
43986;SDS011;29650;47.378;8.300;2022-12-18T07:59:42;24.63;;;10.95;;
43986;SDS011;29650;47.378;8.300;2022-12-18T08:02:09;24.73;;;10.35;;
43986;SDS011;29650;47.378;8.300;2022-12-18T08:04:36;22.83;;;9.85;;
43986;SDS011;29650;47.378;8.300;2022-12-18T08:07:03;23.33;;;8.80;;
43986;SDS011;29650;47.378;8.300;2022-12-18T08:09:30;20.67;;;8.55;;
43986;SDS011;29650;47.378;8.300;2022-12-18T08:11:57;29.13;;;10.73;;
43986;SDS011;29650;47.378;8.300;2022-12-18T08:14:24;23.27;;;9.48;;
43986;SDS011;29650;47.378;8.300;2022-12-18T08:16:52;22.00;;;7.95;;
43986;SDS011;29650;47.378;8.300;2022-12-18T08:19:19;24.60;;;8.87;;
43986;SDS011;29650;47.378;8.300;2022-12-18T08:21:46;23.60;;;8.55;;
43986;SDS011;29650;47.378;8.300;2022-12-18T08:24:13;24.20;;;9.10;;
43986;SDS011;29650;47.378;8.300;2022-12-18T08:26:40;18.40;;;9.82;;
43986;SDS011;29650;47.378;8.300;2022-12-18T08:29:08;22.25;;;9.68;;
43986;SDS011;29650;47.378;8.300;2022-12-18T08:31:35;26.40;;;9.95;;
43986;SDS011;29650;47.378;8.300;2022-12-18T08:34:03;20.73;;;8.20;;
43986;SDS011;29650;47.378;8.300;2022-12-18T08:36:30;19.17;;;8.47;;
43986;SDS011;29650;47.378;8.300;2022-12-18T08:38:57;23.38;;;9.80;;
43986;SDS011;29650;47.378;8.300;2022-12-18T08:41:24;26.08;;;11.73;;
43986;SDS011;29650;47.378;8.300;2022-12-18T08:43:51;21.55;;;9.35;;
43986;SDS011;29650;47.378;8.300;2022-12-18T08:46:36;19.58;;;8.43;;
43986;SDS011;29650;47.378;8.300;2022-12-18T08:49:06;34.47;;;12.30;;
43986;SDS011;29650;47.378;8.300;2022-12-18T08:51:34;24.90;;;9.82;;
43986;SDS011;29650;47.378;8.300;2022-12-18T08:54:02;25.73;;;9.90;;
43986;SDS011;29650;47.378;8.300;2022-12-18T08:56:30;21.93;;;10.07;;
43986;SDS011;29650;47.378;8.300;2022-12-18T08:58:58;26.48;;;10.00;;
43986;SDS011;29650;47.378;8.300;2022-12-18T09:01:25;21.30;;;8.02;;
43986;SDS011;29650;47.378;8.300;2022-12-18T09:03:51;18.60;;;8.95;;
43986;SDS011;29650;47.378;8.300;2022-12-18T09:06:20;22.42;;;8.55;;
43986;SDS011;29650;47.378;8.300;2022-12-18T09:08:49;26.85;;;8.50;;
43986;SDS011;29650;47.378;8.300;2022-12-18T09:11:19;23.75;;;9.50;;
43986;SDS011;29650;47.378;8.300;2022-12-18T09:13:47;20.75;;;9.48;;
43986;SDS011;29650;47.378;8.300;2022-12-18T09:16:15;25.00;;;9.60;;
43986;SDS011;29650;47.378;8.300;2022-12-18T09:18:42;15.18;;;7.75;;
43986;SDS011;29650;47.378;8.300;2022-12-18T09:21:10;27.35;;;8.02;;
43986;SDS011;29650;47.378;8.300;2022-12-18T09:23:39;23.52;;;8.60;;
43986;SDS011;29650;47.378;8.300;2022-12-18T09:26:06;17.75;;;7.32;;
43986;SDS011;29650;47.378;8.300;2022-12-18T09:28:33;29.98;;;12.07;;
43986;SDS011;29650;47.378;8.300;2022-12-18T09:31:03;25.17;;;9.52;;
43986;SDS011;29650;47.378;8.300;2022-12-18T09:33:32;20.38;;;8.88;;
43986;SDS011;29650;47.378;8.300;2022-12-18T09:36:00;21.95;;;8.75;;
43986;SDS011;29650;47.378;8.300;2022-12-18T09:38:28;24.35;;;9.05;;
43986;SDS011;29650;47.378;8.300;2022-12-18T09:40:57;22.65;;;9.68;;
43986;SDS011;29650;47.378;8.300;2022-12-18T09:43:28;24.30;;;9.40;;
43986;SDS011;29650;47.378;8.300;2022-12-18T09:46:01;24.02;;;9.27;;
43986;SDS011;29650;47.378;8.300;2022-12-18T09:48:32;23.38;;;9.63;;
43986;SDS011;29650;47.378;8.300;2022-12-18T09:51:02;22.77;;;9.30;;
43986;SDS011;29650;47.378;8.300;2022-12-18T09:53:35;25.13;;;9.20;;
43986;SDS011;29650;47.378;8.300;2022-12-18T09:56:06;22.98;;;11.48;;
43986;SDS011;29650;47.378;8.300;2022-12-18T09:58:41;19.52;;;9.48;;
43986;SDS011;29650;47.378;8.300;2022-12-18T10:01:14;22.85;;;9.52;;
43986;SDS011;29650;47.378;8.300;2022-12-18T10:03:49;23.75;;;8.35;;
43986;SDS011;29650;47.378;8.300;2022-12-18T10:06:18;19.58;;;9.80;;
43986;SDS011;29650;47.378;8.300;2022-12-18T10:08:49;20.42;;;8.95;;
43986;SDS011;29650;47.378;8.300;2022-12-18T10:11:26;17.70;;;8.38;;
43986;SDS011;29650;47.378;8.300;2022-12-18T10:14:05;21.40;;;9.35;;
43986;SDS011;29650;47.378;8.300;2022-12-18T10:16:40;20.58;;;8.73;;
43986;SDS011;29650;47.378;8.300;2022-12-18T10:19:18;19.85;;;8.90;;
43986;SDS011;29650;47.378;8.300;2022-12-18T10:21:57;19.45;;;7.45;;
43986;SDS011;29650;47.378;8.300;2022-12-18T10:24:32;21.70;;;7.97;;
43986;SDS011;29650;47.378;8.300;2022-12-18T10:27:11;20.42;;;7.95;;
43986;SDS011;29650;47.378;8.300;2022-12-18T10:29:41;21.67;;;7.38;;
43986;SDS011;29650;47.378;8.300;2022-12-18T10:32:13;18.08;;;7.97;;
43986;SDS011;29650;47.378;8.300;2022-12-18T10:34:44;18.63;;;7.72;;
43986;SDS011;29650;47.378;8.300;2022-12-18T10:37:14;17.60;;;7.43;;
43986;SDS011;29650;47.378;8.300;2022-12-18T10:39:43;16.00;;;7.22;;
43986;SDS011;29650;47.378;8.300;2022-12-18T10:42:16;19.13;;;7.63;;
43986;SDS011;29650;47.378;8.300;2022-12-18T10:44:44;17.23;;;7.90;;
43986;SDS011;29650;47.378;8.300;2022-12-18T10:47:26;16.27;;;7.35;;
43986;SDS011;29650;47.378;8.300;2022-12-18T10:49:53;15.60;;;6.88;;
43986;SDS011;29650;47.378;8.300;2022-12-18T10:52:21;19.00;;;7.18;;
43986;SDS011;29650;47.378;8.300;2022-12-18T10:54:51;15.98;;;7.25;;
43986;SDS011;29650;47.378;8.300;2022-12-18T11:00:21;13.93;;;7.00;;
43986;SDS011;29650;47.378;8.300;2022-12-18T11:02:50;19.13;;;7.72;;
43986;SDS011;29650;47.378;8.300;2022-12-18T11:05:27;18.05;;;6.78;;
43986;SDS011;29650;47.378;8.300;2022-12-18T11:07:55;19.10;;;7.75;;
43986;SDS011;29650;47.378;8.300;2022-12-18T11:10:25;18.55;;;7.53;;
43986;SDS011;29650;47.378;8.300;2022-12-18T11:12:56;16.63;;;6.05;;
43986;SDS011;29650;47.378;8.300;2022-12-18T11:15:36;16.35;;;7.30;;
43986;SDS011;29650;47.378;8.300;2022-12-18T11:18:13;20.70;;;8.63;;
43986;SDS011;29650;47.378;8.300;2022-12-18T11:20:50;19.25;;;9.02;;
43986;SDS011;29650;47.378;8.300;2022-12-18T11:23:18;15.30;;;7.03;;
43986;SDS011;29650;47.378;8.300;2022-12-18T11:25:51;19.35;;;7.60;;
43986;SDS011;29650;47.378;8.300;2022-12-18T11:28:29;18.27;;;7.47;;
43986;SDS011;29650;47.378;8.300;2022-12-18T11:31:09;20.52;;;6.82;;
43986;SDS011;29650;47.378;8.300;2022-12-18T11:33:46;16.75;;;8.15;;
43986;SDS011;29650;47.378;8.300;2022-12-18T11:36:18;21.27;;;7.13;;
43986;SDS011;29650;47.378;8.300;2022-12-18T11:41:18;15.98;;;5.22;;
43986;SDS011;29650;47.378;8.300;2022-12-18T11:44:13;16.17;;;7.40;;
43986;SDS011;29650;47.378;8.300;2022-12-18T11:46:45;15.80;;;7.53;;
43986;SDS011;29650;47.378;8.300;2022-12-18T11:49:17;14.38;;;6.60;;
43986;SDS011;29650;47.378;8.300;2022-12-18T11:51:50;18.60;;;8.43;;
43986;SDS011;29650;47.378;8.300;2022-12-18T11:54:21;23.98;;;7.95;;
43986;SDS011;29650;47.378;8.300;2022-12-18T11:56:49;21.33;;;8.10;;
43986;SDS011;29650;47.378;8.300;2022-12-18T11:59:25;15.48;;;6.88;;
43986;SDS011;29650;47.378;8.300;2022-12-18T12:02:09;20.63;;;8.90;;
43986;SDS011;29650;47.378;8.300;2022-12-18T12:05:00;20.38;;;7.63;;
43986;SDS011;29650;47.378;8.300;2022-12-18T12:07:39;17.67;;;7.60;;
43986;SDS011;29650;47.378;8.300;2022-12-18T12:10:20;17.00;;;7.07;;
43986;SDS011;29650;47.378;8.300;2022-12-18T12:13:02;16.88;;;8.02;;
43986;SDS011;29650;47.378;8.300;2022-12-18T12:15:44;15.40;;;5.90;;
43986;SDS011;29650;47.378;8.300;2022-12-18T12:18:21;18.88;;;6.95;;
43986;SDS011;29650;47.378;8.300;2022-12-18T12:20:59;17.88;;;7.95;;
43986;SDS011;29650;47.378;8.300;2022-12-18T12:23:34;25.83;;;8.10;;
43986;SDS011;29650;47.378;8.300;2022-12-18T12:26:08;16.70;;;6.80;;
43986;SDS011;29650;47.378;8.300;2022-12-18T12:28:44;17.98;;;7.32;;
43986;SDS011;29650;47.378;8.300;2022-12-18T12:31:41;14.07;;;5.93;;
43986;SDS011;29650;47.378;8.300;2022-12-18T12:34:21;15.32;;;7.55;;
43986;SDS011;29650;47.378;8.300;2022-12-18T12:37:03;25.58;;;9.40;;
43986;SDS011;29650;47.378;8.300;2022-12-18T12:39:40;20.03;;;8.60;;
43986;SDS011;29650;47.378;8.300;2022-12-18T12:42:11;21.40;;;9.45;;
43986;SDS011;29650;47.378;8.300;2022-12-18T12:44:59;24.15;;;9.05;;
43986;SDS011;29650;47.378;8.300;2022-12-18T12:47:33;15.52;;;7.32;;
43986;SDS011;29650;47.378;8.300;2022-12-18T12:50:05;19.67;;;8.43;;
43986;SDS011;29650;47.378;8.300;2022-12-18T12:52:39;16.80;;;7.47;;
43986;SDS011;29650;47.378;8.300;2022-12-18T12:55:12;17.98;;;7.05;;
43986;SDS011;29650;47.378;8.300;2022-12-18T12:57:45;26.00;;;8.32;;
43986;SDS011;29650;47.378;8.300;2022-12-18T13:00:15;20.25;;;9.10;;
43986;SDS011;29650;47.378;8.300;2022-12-18T13:02:47;16.63;;;7.45;;
43986;SDS011;29650;47.378;8.300;2022-12-18T13:05:19;19.77;;;7.63;;
43986;SDS011;29650;47.378;8.300;2022-12-18T13:07:53;21.42;;;7.85;;
43986;SDS011;29650;47.378;8.300;2022-12-18T13:10:31;23.95;;;8.65;;
43986;SDS011;29650;47.378;8.300;2022-12-18T13:13:00;22.98;;;8.10;;
43986;SDS011;29650;47.378;8.300;2022-12-18T13:15:32;16.50;;;7.32;;
43986;SDS011;29650;47.378;8.300;2022-12-18T13:18:17;21.85;;;7.75;;
43986;SDS011;29650;47.378;8.300;2022-12-18T13:20:46;23.08;;;9.50;;
43986;SDS011;29650;47.378;8.300;2022-12-18T13:23:28;18.23;;;7.28;;
43986;SDS011;29650;47.378;8.300;2022-12-18T13:25:58;16.48;;;7.80;;
43986;SDS011;29650;47.378;8.300;2022-12-18T13:34:34;19.27;;;7.40;;
43986;SDS011;29650;47.378;8.300;2022-12-18T13:43:15;20.88;;;8.85;;
43986;SDS011;29650;47.378;8.300;2022-12-18T13:45:50;26.35;;;8.65;;
43986;SDS011;29650;47.378;8.300;2022-12-18T13:48:27;19.10;;;7.63;;
43986;SDS011;29650;47.378;8.300;2022-12-18T13:50:59;20.20;;;8.38;;
43986;SDS011;29650;47.378;8.300;2022-12-18T13:53:30;17.85;;;8.65;;
43986;SDS011;29650;47.378;8.300;2022-12-18T13:56:02;22.52;;;9.50;;
43986;SDS011;29650;47.378;8.300;2022-12-18T13:58:30;21.20;;;8.75;;
43986;SDS011;29650;47.378;8.300;2022-12-18T14:00:58;20.75;;;8.52;;
43986;SDS011;29650;47.378;8.300;2022-12-18T14:03:27;20.80;;;8.50;;
43986;SDS011;29650;47.378;8.300;2022-12-18T14:05:58;19.05;;;7.13;;
43986;SDS011;29650;47.378;8.300;2022-12-18T14:08:34;22.25;;;9.48;;
43986;SDS011;29650;47.378;8.300;2022-12-18T14:11:04;23.98;;;9.23;;
43986;SDS011;29650;47.378;8.300;2022-12-18T14:13:33;24.88;;;9.82;;
43986;SDS011;29650;47.378;8.300;2022-12-18T14:16:04;25.10;;;10.45;;
43986;SDS011;29650;47.378;8.300;2022-12-18T14:18:36;22.38;;;9.23;;
43986;SDS011;29650;47.378;8.300;2022-12-18T14:21:15;21.88;;;8.80;;
43986;SDS011;29650;47.378;8.300;2022-12-18T14:23:45;22.70;;;8.85;;
43986;SDS011;29650;47.378;8.300;2022-12-18T14:26:20;25.20;;;9.73;;
43986;SDS011;29650;47.378;8.300;2022-12-18T14:28:49;22.80;;;9.35;;
43986;SDS011;29650;47.378;8.300;2022-12-18T14:31:19;22.35;;;7.95;;
43986;SDS011;29650;47.378;8.300;2022-12-18T14:33:47;25.27;;;9.98;;
43986;SDS011;29650;47.378;8.300;2022-12-18T14:36:16;25.30;;;9.55;;
43986;SDS011;29650;47.378;8.300;2022-12-18T14:38:47;28.00;;;9.45;;
43986;SDS011;29650;47.378;8.300;2022-12-18T14:41:16;19.65;;;8.23;;
43986;SDS011;29650;47.378;8.300;2022-12-18T14:43:45;22.58;;;9.48;;
43986;SDS011;29650;47.378;8.300;2022-12-18T14:46:26;21.17;;;9.10;;
43986;SDS011;29650;47.378;8.300;2022-12-18T14:48:56;25.33;;;8.27;;
43986;SDS011;29650;47.378;8.300;2022-12-18T14:51:25;19.65;;;8.63;;
43986;SDS011;29650;47.378;8.300;2022-12-18T14:53:54;25.15;;;10.27;;
43986;SDS011;29650;47.378;8.300;2022-12-18T14:58:51;26.75;;;10.38;;
43986;SDS011;29650;47.378;8.300;2022-12-18T15:01:23;27.45;;;10.15;;
43986;SDS011;29650;47.378;8.300;2022-12-18T15:03:52;24.63;;;9.85;;
43986;SDS011;29650;47.378;8.300;2022-12-18T15:06:31;24.20;;;9.40;;
43986;SDS011;29650;47.378;8.300;2022-12-18T15:09:00;17.80;;;7.45;;
43986;SDS011;29650;47.378;8.300;2022-12-18T15:11:35;17.65;;;7.85;;
43986;SDS011;29650;47.378;8.300;2022-12-18T15:14:23;26.77;;;10.27;;